createdAt,value
2018-04-12T00:00:07.380Z,923.89
2018-04-12T00:01:15.483Z,923.86
2018-04-12T00:02:23.481Z,923.84
2018-04-12T00:03:31.837Z,923.77
2018-04-12T00:04:39.603Z,923.67
2018-04-12T00:05:47.644Z,923.68
2018-04-12T00:06:55.842Z,923.67
2018-04-12T00:08:03.908Z,923.75
2018-04-12T00:09:11.854Z,923.72
2018-04-12T00:10:19.912Z,923.76
2018-04-12T00:11:27.983Z,923.76
2018-04-12T00:12:36.098Z,923.70
2018-04-12T00:13:44.109Z,923.75
2018-04-12T00:14:53.175Z,923.71
2018-04-12T00:16:00.232Z,923.68
2018-04-12T00:17:08.346Z,923.70
2018-04-12T00:18:16.366Z,923.66
2018-04-12T00:19:24.419Z,923.66
2018-04-12T00:20:32.479Z,923.64
2018-04-12T00:21:40.555Z,923.60
2018-04-12T00:22:48.713Z,923.59
2018-04-12T00:23:56.790Z,923.63
2018-04-12T00:25:04.747Z,923.63
2018-04-12T00:26:12.829Z,923.61
2018-04-12T00:27:20.844Z,923.55
2018-04-12T00:28:28.982Z,923.52
2018-04-12T00:29:36.989Z,923.45
2018-04-12T00:30:45.046Z,923.45
2018-04-12T00:31:53.116Z,923.38
2018-04-12T00:33:01.145Z,923.38
2018-04-12T00:34:09.353Z,923.37
2018-04-12T00:35:17.308Z,923.35
2018-04-12T00:36:25.377Z,923.43
2018-04-12T00:37:33.476Z,923.46
2018-04-12T00:38:41.471Z,923.44
2018-04-12T00:39:49.665Z,923.44
2018-04-12T00:40:57.632Z,923.47
2018-04-12T00:42:05.687Z,923.45
2018-04-12T00:43:13.753Z,923.48
2018-04-12T00:44:21.796Z,923.51
2018-04-12T00:45:29.902Z,923.53
2018-04-12T00:46:37.935Z,923.56
2018-04-12T00:47:45.999Z,923.56
2018-04-12T00:48:54.068Z,923.51
2018-04-12T00:50:02.114Z,923.51
2018-04-12T00:51:10.308Z,923.56
2018-04-12T00:52:18.256Z,923.57
2018-04-12T00:53:26.312Z,923.56
2018-04-12T00:54:34.383Z,923.50
2018-04-12T00:55:42.561Z,923.57
2018-04-12T00:56:50.601Z,923.54
2018-04-12T00:57:58.572Z,923.54
2018-04-12T00:59:06.682Z,923.55
2018-04-12T01:00:14.700Z,923.52
2018-04-12T01:01:22.749Z,923.49
2018-04-12T01:02:30.866Z,923.44
2018-04-12T01:03:38.873Z,923.45
2018-04-12T01:04:46.939Z,923.48
2018-04-12T01:05:55.016Z,923.53
2018-04-12T01:07:03.133Z,923.52
2018-04-12T01:08:11.108Z,923.51
2018-04-12T01:09:19.190Z,923.60
2018-04-12T01:10:27.257Z,923.58
2018-04-12T01:11:35.437Z,923.53
2018-04-12T01:12:43.422Z,923.52
2018-04-12T01:13:51.413Z,923.51
2018-04-12T01:14:59.502Z,923.45
2018-04-12T01:16:07.571Z,923.45
2018-04-12T01:17:15.680Z,923.44
2018-04-12T01:18:23.721Z,923.50
2018-04-12T01:19:31.734Z,923.49
2018-04-12T01:20:39.821Z,923.54
2018-04-12T01:21:47.867Z,923.60
2018-04-12T01:22:56.033Z,923.66
2018-04-12T01:24:04.000Z,923.68
2018-04-12T01:25:12.063Z,923.69
2018-04-12T01:26:20.120Z,923.67
2018-04-12T01:27:28.249Z,923.61
2018-04-12T01:28:36.307Z,923.61
2018-04-12T01:29:44.320Z,923.65
2018-04-12T01:30:52.390Z,923.62
2018-04-12T01:32:00.431Z,923.65
2018-04-12T01:33:08.507Z,923.59
2018-04-12T01:34:16.680Z,923.64
2018-04-12T01:35:24.632Z,923.58
2018-04-12T01:36:32.700Z,923.57
2018-04-12T01:37:40.741Z,923.57
2018-04-12T01:38:48.832Z,923.51
2018-04-12T01:39:56.996Z,923.47
2018-04-12T01:41:04.947Z,923.44
2018-04-12T01:42:13.145Z,923.42
2018-04-12T01:43:21.044Z,923.35
2018-04-12T01:44:29.130Z,923.28
2018-04-12T01:45:37.305Z,923.23
2018-04-12T01:46:45.251Z,923.18
2018-04-12T01:47:53.315Z,923.13
2018-04-12T01:49:01.353Z,923.08
2018-04-12T01:50:09.435Z,923.02
2018-04-12T01:51:17.622Z,923.01
2018-04-12T01:52:25.575Z,923.03
2018-04-12T01:53:33.630Z,923.02
2018-04-12T01:54:41.685Z,923.03
2018-04-12T01:55:49.765Z,922.98
2018-04-12T01:56:57.931Z,922.96
2018-04-12T01:58:06.017Z,922.97
2018-04-12T01:59:13.931Z,922.98
2018-04-12T02:00:22.001Z,922.98
2018-04-12T02:01:30.059Z,922.96
2018-04-12T02:02:38.170Z,922.90
2018-04-12T02:03:46.196Z,922.90
2018-04-12T02:04:54.263Z,922.89
2018-04-12T02:06:02.326Z,922.89
2018-04-12T02:07:10.492Z,922.92
2018-04-12T02:08:18.438Z,922.83
2018-04-12T02:09:26.514Z,922.76
2018-04-12T02:10:34.581Z,922.72
2018-04-12T02:11:42.638Z,922.64
2018-04-12T02:12:50.803Z,922.60
2018-04-12T02:13:58.801Z,922.58
2018-04-12T02:15:06.815Z,922.58
2018-04-12T02:16:14.910Z,922.59
2018-04-12T02:17:22.936Z,922.67
2018-04-12T02:18:31.218Z,922.70
2018-04-12T02:19:39.068Z,922.72
2018-04-12T02:20:47.120Z,922.79
2018-04-12T02:21:55.187Z,922.74
2018-04-12T02:23:03.258Z,922.75
2018-04-12T02:24:11.353Z,922.76
2018-04-12T02:25:19.383Z,922.79
2018-04-12T02:26:27.439Z,922.81
2018-04-12T02:27:35.493Z,922.82
2018-04-12T02:28:43.574Z,922.82
2018-04-12T02:29:51.730Z,922.84
2018-04-12T02:30:59.692Z,922.88
2018-04-12T02:32:07.815Z,922.90
2018-04-12T02:33:15.824Z,922.99
2018-04-12T02:34:23.882Z,923.04
2018-04-12T02:35:31.994Z,923.06
2018-04-12T02:36:40.024Z,923.01
2018-04-12T02:37:48.074Z,922.98
2018-04-12T02:38:56.125Z,922.98
2018-04-12T02:40:04.196Z,922.91
2018-04-12T02:41:12.366Z,922.95
2018-04-12T02:42:20.319Z,922.94
2018-04-12T02:43:28.377Z,922.93
2018-04-12T02:44:36.441Z,922.88
2018-04-12T02:45:44.638Z,922.82
2018-04-12T02:46:52.619Z,922.77
2018-04-12T02:48:00.650Z,922.78
2018-04-12T02:49:08.695Z,922.75
2018-04-12T02:50:16.748Z,922.76
2018-04-12T02:51:24.795Z,922.79
2018-04-12T02:52:32.938Z,922.78
2018-04-12T02:53:40.938Z,922.77
2018-04-12T02:54:49.021Z,922.77
2018-04-12T02:55:57.086Z,922.80
2018-04-12T02:57:05.174Z,922.82
2018-04-12T02:58:13.188Z,922.85
2018-04-12T02:59:21.239Z,922.88
2018-04-12T03:00:29.324Z,922.90
2018-04-12T03:01:37.498Z,922.96
2018-04-12T03:02:45.561Z,922.96
2018-04-12T03:03:53.498Z,923.01
2018-04-12T03:05:01.536Z,923.09
2018-04-12T03:06:09.635Z,923.05
2018-04-12T03:07:17.695Z,923.09
2018-04-12T03:08:25.864Z,923.03
2018-04-12T03:09:33.816Z,923.00
2018-04-12T03:10:41.864Z,923.03
2018-04-12T03:11:49.947Z,923.05
2018-04-12T03:12:58.002Z,923.10
2018-04-12T03:14:06.119Z,923.13
2018-04-12T03:15:14.153Z,923.13
2018-04-12T03:16:22.187Z,923.16
2018-04-12T03:17:30.297Z,923.16
2018-04-12T03:18:38.322Z,923.17
2018-04-12T03:19:46.499Z,923.21
2018-04-12T03:20:54.442Z,923.20
2018-04-12T03:22:02.494Z,923.19
2018-04-12T03:23:10.578Z,923.13
2018-04-12T03:24:18.627Z,923.17
2018-04-12T03:25:26.863Z,923.16
2018-04-12T03:26:34.756Z,923.14
2018-04-12T03:27:42.818Z,923.10
2018-04-12T03:28:50.887Z,923.09
2018-04-12T03:29:58.939Z,923.05
2018-04-12T03:31:07.111Z,923.02
2018-04-12T03:32:15.108Z,923.02
2018-04-12T03:33:23.138Z,923.03
2018-04-12T03:34:31.171Z,923.08
2018-04-12T03:35:39.254Z,923.09
2018-04-12T03:36:47.433Z,923.05
2018-04-12T03:37:55.379Z,923.06
2018-04-12T03:39:03.447Z,923.05
2018-04-12T03:40:11.474Z,923.05
2018-04-12T03:41:19.556Z,923.08
2018-04-12T03:42:27.668Z,923.10
2018-04-12T03:43:35.694Z,923.06
2018-04-12T03:44:43.741Z,923.09
2018-04-12T03:45:51.816Z,923.11
2018-04-12T03:46:59.858Z,923.12
2018-04-12T03:48:08.037Z,923.12
2018-04-12T03:49:16.008Z,923.10
2018-04-12T03:50:24.085Z,923.13
2018-04-12T03:51:32.125Z,923.15
2018-04-12T03:52:40.245Z,923.17
2018-04-12T03:53:48.226Z,923.21
2018-04-12T03:54:56.319Z,923.23
2018-04-12T03:56:04.377Z,923.26
2018-04-12T03:57:12.494Z,923.25
2018-04-12T03:58:20.492Z,923.23
2018-04-12T03:59:28.539Z,923.24
2018-04-12T04:00:36.612Z,923.24
2018-04-12T04:01:44.715Z,923.23
2018-04-12T04:02:52.849Z,923.22
2018-04-12T04:04:00.892Z,923.20
2018-04-12T04:05:08.869Z,923.17
2018-04-12T04:06:16.933Z,923.17
2018-04-12T04:07:25.027Z,923.14
2018-04-12T04:08:33.170Z,923.18
2018-04-12T04:09:41.071Z,923.19
2018-04-12T04:10:49.159Z,923.22
2018-04-12T04:11:57.232Z,923.26
2018-04-12T04:13:05.284Z,923.26
2018-04-12T04:14:13.472Z,923.30
2018-04-12T04:15:21.396Z,923.29
2018-04-12T04:16:29.480Z,923.29
2018-04-12T04:17:37.545Z,923.29
2018-04-12T04:18:45.600Z,923.27
2018-04-12T04:19:53.770Z,923.30
2018-04-12T04:21:01.701Z,923.32
2018-04-12T04:22:09.791Z,923.34
2018-04-12T04:23:17.851Z,923.34
2018-04-12T04:24:25.931Z,923.31
2018-04-12T04:25:34.023Z,923.28
2018-04-12T04:26:42.022Z,923.24
2018-04-12T04:27:50.091Z,923.24
2018-04-12T04:28:58.155Z,923.23
2018-04-12T04:30:06.208Z,923.27
2018-04-12T04:31:14.513Z,923.30
2018-04-12T04:32:22.471Z,923.34
2018-04-12T04:33:30.415Z,923.35
2018-04-12T04:34:38.477Z,923.43
2018-04-12T04:35:46.654Z,923.48
2018-04-12T04:36:54.696Z,923.55
2018-04-12T04:38:02.653Z,923.62
2018-04-12T04:39:10.703Z,923.63
2018-04-12T04:40:18.780Z,923.66
2018-04-12T04:41:26.854Z,923.64
2018-04-12T04:42:34.943Z,923.66
2018-04-12T04:43:42.964Z,923.66
2018-04-12T04:44:51.001Z,923.70
2018-04-12T04:45:59.090Z,923.72
2018-04-12T04:47:07.252Z,923.70
2018-04-12T04:48:15.266Z,923.70
2018-04-12T04:49:23.294Z,923.73
2018-04-12T04:50:31.293Z,923.76
2018-04-12T04:51:39.510Z,923.77
2018-04-12T04:52:47.566Z,923.84
2018-04-12T04:53:55.888Z,923.82
2018-04-12T04:55:04.121Z,923.81
2018-04-12T04:56:11.607Z,923.84
2018-04-12T04:57:19.684Z,923.84
2018-04-12T04:58:27.801Z,923.87
2018-04-12T04:59:35.819Z,923.90
2018-04-12T05:00:43.884Z,923.90
2018-04-12T05:01:51.935Z,923.91
2018-04-12T05:02:59.997Z,923.94
2018-04-12T05:04:08.100Z,923.94
2018-04-12T05:05:16.123Z,924.00
2018-04-12T05:06:24.206Z,924.02
2018-04-12T05:07:32.298Z,924.04
2018-04-12T05:08:40.303Z,924.05
2018-04-12T05:09:48.485Z,924.12
2018-04-12T05:10:56.435Z,924.12
2018-04-12T05:12:04.495Z,924.12
2018-04-12T05:13:12.564Z,924.09
2018-04-12T05:14:20.620Z,924.08
2018-04-12T05:15:28.764Z,924.11
2018-04-12T05:16:36.752Z,924.13
2018-04-12T05:17:44.826Z,924.19
2018-04-12T05:18:52.857Z,924.22
2018-04-12T05:20:00.923Z,924.20
2018-04-12T05:21:09.102Z,924.22
2018-04-12T05:22:17.171Z,924.19
2018-04-12T05:23:25.129Z,924.19
2018-04-12T05:24:33.186Z,924.21
2018-04-12T05:25:41.202Z,924.23
2018-04-12T05:26:49.351Z,924.22
2018-04-12T05:27:57.358Z,924.16
2018-04-12T05:29:05.426Z,924.09
2018-04-12T05:30:13.493Z,924.08
2018-04-12T05:31:21.530Z,924.06
2018-04-12T05:32:29.652Z,924.08
2018-04-12T05:33:37.678Z,924.15
2018-04-12T05:34:45.746Z,924.06
2018-04-12T05:35:53.809Z,923.97
2018-04-12T05:37:01.859Z,923.93
2018-04-12T05:38:10.045Z,923.90
2018-04-12T05:39:17.985Z,923.88
2018-04-12T05:40:26.055Z,923.83
2018-04-12T05:41:34.117Z,923.78
2018-04-12T05:42:42.305Z,923.79
2018-04-12T05:43:50.226Z,923.80
2018-04-12T05:44:58.312Z,923.88
2018-04-12T05:46:06.377Z,923.89
2018-04-12T05:47:14.423Z,923.91
2018-04-12T05:48:22.527Z,923.96
2018-04-12T05:49:30.552Z,923.98
2018-04-12T05:50:38.643Z,923.99
2018-04-12T05:51:46.680Z,923.99
2018-04-12T05:52:54.781Z,924.00
2018-04-12T05:54:02.929Z,924.04
2018-04-12T05:55:10.869Z,924.03
2018-04-12T05:56:18.947Z,924.13
2018-04-12T05:57:26.997Z,924.12
2018-04-12T05:58:35.068Z,924.14
2018-04-12T05:59:43.177Z,924.13
2018-04-12T06:00:51.181Z,924.05
2018-04-12T06:01:59.244Z,924.03
2018-04-12T06:03:07.323Z,923.97
2018-04-12T06:04:15.388Z,923.99
2018-04-12T06:05:23.572Z,924.01
2018-04-12T06:06:31.492Z,923.98
2018-04-12T06:07:39.570Z,923.99
2018-04-12T06:08:47.645Z,923.99
2018-04-12T06:09:55.821Z,924.00
2018-04-12T06:11:03.832Z,923.99
2018-04-12T06:12:11.835Z,923.99
2018-04-12T06:13:19.903Z,923.96
2018-04-12T06:14:27.965Z,923.96
2018-04-12T06:15:36.037Z,923.98
2018-04-12T06:16:44.145Z,923.97
2018-04-12T06:17:52.156Z,923.96
2018-04-12T06:19:00.221Z,923.95
2018-04-12T06:20:08.286Z,924.00
2018-04-12T06:21:16.462Z,923.97
2018-04-12T06:22:24.426Z,923.96
2018-04-12T06:23:32.484Z,923.94
2018-04-12T06:24:40.545Z,923.94
2018-04-12T06:25:48.722Z,923.94
2018-04-12T06:26:56.715Z,923.96
2018-04-12T06:28:04.726Z,923.93
2018-04-12T06:29:12.811Z,923.99
2018-04-12T06:30:20.854Z,923.98
2018-04-12T06:31:28.937Z,923.98
2018-04-12T06:32:37.056Z,924.00
2018-04-12T06:33:45.059Z,924.07
2018-04-12T06:34:53.123Z,924.08
2018-04-12T06:36:01.173Z,924.10
2018-04-12T06:37:09.406Z,924.08
2018-04-12T06:38:17.306Z,924.07
2018-04-12T06:39:25.387Z,924.08
2018-04-12T06:40:33.456Z,924.14
2018-04-12T06:41:41.558Z,924.16
2018-04-12T06:42:49.700Z,924.20
2018-04-12T06:43:57.654Z,924.23
2018-04-12T06:45:05.724Z,924.29
2018-04-12T06:46:13.789Z,924.38
2018-04-12T06:47:21.835Z,924.59
2018-04-12T06:48:29.953Z,924.77
2018-04-12T06:49:37.983Z,924.61
2018-04-12T06:50:46.031Z,924.54
2018-04-12T06:51:54.111Z,924.79
2018-04-12T06:53:02.349Z,924.89
2018-04-12T06:54:10.248Z,924.73
2018-04-12T06:55:18.313Z,924.92
2018-04-12T06:56:26.379Z,925.11
2018-04-12T06:57:34.520Z,924.72
2018-04-12T06:58:42.614Z,924.68
2018-04-12T06:59:50.575Z,924.97
2018-04-12T07:00:58.644Z,925.34
2018-04-12T07:02:06.705Z,925.23
2018-04-12T07:03:14.764Z,925.07
2018-04-12T07:04:22.957Z,925.42
2018-04-12T07:05:30.881Z,925.60
2018-04-12T07:06:38.972Z,925.60
2018-04-12T07:07:47.029Z,926.06
2018-04-12T07:08:55.126Z,926.05
2018-04-12T07:10:03.291Z,925.59
2018-04-12T07:11:11.218Z,924.99
2018-04-12T07:12:19.363Z,925.06
2018-04-12T07:13:27.389Z,924.83
2018-04-12T07:14:35.448Z,924.90
2018-04-12T07:15:43.633Z,924.86
2018-04-12T07:16:51.552Z,924.87
2018-04-12T07:17:59.651Z,924.95
2018-04-12T07:19:07.726Z,925.07
2018-04-12T07:20:15.806Z,925.19
2018-04-12T07:21:23.908Z,925.17
2018-04-12T07:22:31.924Z,925.17
2018-04-12T07:23:40.003Z,925.17
2018-04-12T07:24:48.072Z,925.19
2018-04-12T07:25:56.130Z,925.16
2018-04-12T07:27:04.238Z,925.17
2018-04-12T07:28:12.278Z,925.21
2018-04-12T07:29:20.337Z,925.28
2018-04-12T07:30:28.410Z,925.09
2018-04-12T07:31:36.478Z,925.07
2018-04-12T07:32:44.600Z,925.03
2018-04-12T07:33:52.615Z,925.07
2018-04-12T07:35:00.683Z,925.16
2018-04-12T07:36:08.754Z,925.21
2018-04-12T07:37:16.827Z,925.28
2018-04-12T07:38:25.009Z,925.42
2018-04-12T07:39:32.963Z,925.44
2018-04-12T07:40:40.989Z,925.42
2018-04-12T07:41:49.077Z,925.43
2018-04-12T07:42:57.196Z,925.44
2018-04-12T07:44:05.338Z,925.49
2018-04-12T07:45:13.280Z,925.49
2018-04-12T07:46:21.341Z,925.48
2018-04-12T07:47:29.433Z,925.48
2018-04-12T07:48:37.501Z,925.44
2018-04-12T07:49:45.679Z,925.41
2018-04-12T07:50:53.617Z,925.34
2018-04-12T07:52:01.685Z,925.30
2018-04-12T07:53:09.762Z,925.20
2018-04-12T07:54:17.821Z,925.16
2018-04-12T07:55:26.061Z,925.19
2018-04-12T07:56:33.972Z,925.25
2018-04-12T07:57:42.064Z,925.27
2018-04-12T07:58:50.217Z,925.32
2018-04-12T07:59:58.294Z,925.36
2018-04-12T08:01:06.284Z,925.41
2018-04-12T08:02:14.293Z,925.47
2018-04-12T08:03:22.374Z,925.47
2018-04-12T08:04:30.446Z,925.47
2018-04-12T08:05:38.491Z,925.53
2018-04-12T08:06:46.687Z,925.59
2018-04-12T08:07:54.637Z,925.71
2018-04-12T08:09:02.708Z,925.79
2018-04-12T08:10:10.774Z,925.79
2018-04-12T08:11:18.844Z,925.78
2018-04-12T08:12:26.945Z,925.80
2018-04-12T08:13:34.994Z,925.90
2018-04-12T08:14:43.161Z,926.02
2018-04-12T08:15:51.107Z,926.10
2018-04-12T08:16:59.186Z,926.36
2018-04-12T08:18:07.254Z,925.98
2018-04-12T08:19:15.307Z,925.89
2018-04-12T08:20:23.386Z,925.84
2018-04-12T08:21:31.435Z,925.95
2018-04-12T08:22:39.639Z,926.06
2018-04-12T08:23:47.596Z,926.13
2018-04-12T08:24:55.660Z,926.15
2018-04-12T08:26:03.709Z,926.25
2018-04-12T08:27:11.804Z,926.40
2018-04-12T08:28:19.945Z,926.53
2018-04-12T08:29:27.922Z,926.50
2018-04-12T08:30:36.108Z,926.56
2018-04-12T08:31:44.059Z,926.60
2018-04-12T08:32:52.126Z,926.60
2018-04-12T08:34:00.243Z,926.67
2018-04-12T08:35:08.285Z,926.74
2018-04-12T08:36:16.339Z,926.85
2018-04-12T08:37:24.413Z,926.86
2018-04-12T08:38:32.480Z,926.87
2018-04-12T08:39:40.595Z,926.97
2018-04-12T08:40:48.629Z,927.80
2018-04-12T08:41:56.704Z,928.24
2018-04-12T08:43:04.752Z,927.16
2018-04-12T08:44:12.948Z,927.08
2018-04-12T08:45:20.874Z,927.05
2018-04-12T08:46:29.065Z,926.99
2018-04-12T08:47:37.037Z,927.13
2018-04-12T08:48:45.090Z,927.25
2018-04-12T08:49:53.211Z,927.07
2018-04-12T08:51:01.219Z,927.14
2018-04-12T08:52:09.306Z,927.15
2018-04-12T08:53:17.399Z,927.09
2018-04-12T08:54:25.459Z,927.07
2018-04-12T08:55:33.555Z,927.39
2018-04-12T08:56:41.552Z,927.29
2018-04-12T08:57:49.654Z,927.34
2018-04-12T08:58:57.713Z,927.29
2018-04-12T09:00:05.837Z,927.22
2018-04-12T09:01:13.861Z,927.17
2018-04-12T09:02:21.981Z,927.25
2018-04-12T09:03:30.021Z,927.42
2018-04-12T09:04:38.072Z,927.29
2018-04-12T09:05:46.329Z,927.08
2018-04-12T09:06:54.214Z,927.24
2018-04-12T09:08:02.278Z,927.21
2018-04-12T09:09:10.350Z,927.13
2018-04-12T09:10:18.470Z,926.93
2018-04-12T09:11:26.496Z,926.98
2018-04-12T09:12:34.571Z,926.92
2018-04-12T09:13:42.640Z,926.99
2018-04-12T09:14:50.694Z,927.01
2018-04-12T09:15:58.812Z,926.86
2018-04-12T09:17:06.895Z,926.84
2018-04-12T09:18:14.907Z,926.72
2018-04-12T09:19:22.984Z,926.67
2018-04-12T09:20:31.144Z,926.74
2018-04-12T09:21:39.122Z,926.73
2018-04-12T09:22:47.203Z,926.68
2018-04-12T09:23:55.278Z,926.63
2018-04-12T09:25:03.346Z,926.71
2018-04-12T09:26:11.500Z,926.72
2018-04-12T09:27:19.477Z,926.82
2018-04-12T09:28:27.555Z,926.61
2018-04-12T09:29:35.624Z,926.68
2018-04-12T09:30:43.696Z,926.77
2018-04-12T09:31:51.867Z,926.73
2018-04-12T09:32:59.888Z,926.69
2018-04-12T09:34:07.911Z,926.68
2018-04-12T09:35:16.008Z,926.72
2018-04-12T09:36:24.047Z,926.89
2018-04-12T09:37:32.171Z,926.82
2018-04-12T09:38:40.184Z,926.74
2018-04-12T09:39:48.258Z,926.80
2018-04-12T09:40:56.329Z,926.84
2018-04-12T09:42:04.451Z,926.72
2018-04-12T09:43:12.474Z,926.74
2018-04-12T09:44:20.556Z,926.73
2018-04-12T09:45:28.616Z,926.80
2018-04-12T09:46:36.686Z,926.74
2018-04-12T09:47:44.800Z,926.71
2018-04-12T09:48:52.837Z,926.61
2018-04-12T09:50:00.875Z,926.67
2018-04-12T09:51:08.966Z,926.69
2018-04-12T09:52:17.159Z,926.63
2018-04-12T09:53:25.106Z,926.70
2018-04-12T09:54:33.176Z,926.70
2018-04-12T09:55:41.249Z,926.71
2018-04-12T09:56:49.330Z,926.84
2018-04-12T09:57:57.526Z,926.81
2018-04-12T09:59:05.477Z,926.82
2018-04-12T10:00:13.549Z,926.84
2018-04-12T10:01:21.598Z,926.90
2018-04-12T10:02:29.747Z,926.89
2018-04-12T10:03:37.799Z,926.91
2018-04-12T10:04:45.823Z,926.88
2018-04-12T10:05:53.903Z,926.92
2018-04-12T10:07:01.975Z,926.94
2018-04-12T10:08:10.034Z,926.92
2018-04-12T10:09:18.151Z,926.97
2018-04-12T10:10:26.215Z,926.93
2018-04-12T10:11:34.260Z,926.97
2018-04-12T10:12:42.329Z,926.92
2018-04-12T10:13:50.452Z,926.88
2018-04-12T10:14:58.447Z,926.91
2018-04-12T10:16:06.544Z,926.89
2018-04-12T10:17:14.612Z,926.82
2018-04-12T10:18:22.676Z,926.70
2018-04-12T10:19:30.897Z,926.60
2018-04-12T10:20:38.825Z,926.57
2018-04-12T10:21:46.894Z,926.56
2018-04-12T10:22:54.961Z,926.59
2018-04-12T10:24:03.095Z,926.61
2018-04-12T10:25:11.097Z,926.62
2018-04-12T10:26:19.187Z,926.62
2018-04-12T10:27:27.256Z,926.57
2018-04-12T10:28:35.322Z,926.55
2018-04-12T10:29:43.441Z,926.53
2018-04-12T10:30:51.442Z,926.46
2018-04-12T10:31:59.540Z,926.37
2018-04-12T10:33:08.335Z,926.34
2018-04-12T10:34:16.480Z,926.35
2018-04-12T10:35:23.736Z,926.41
2018-04-12T10:36:31.818Z,926.50
2018-04-12T10:37:39.925Z,926.52
2018-04-12T10:38:48.033Z,926.53
2018-04-12T10:39:56.085Z,926.52
2018-04-12T10:41:04.111Z,926.48
2018-04-12T10:42:12.171Z,926.52
2018-04-12T10:43:20.264Z,926.58
2018-04-12T10:44:28.345Z,926.65
2018-04-12T10:45:36.504Z,926.64
2018-04-12T10:46:44.501Z,926.57
2018-04-12T10:47:52.530Z,926.52
2018-04-12T10:49:00.643Z,926.43
2018-04-12T10:50:08.672Z,926.46
2018-04-12T10:51:16.792Z,926.46
2018-04-12T10:52:24.814Z,926.47
2018-04-12T10:53:32.890Z,926.42
2018-04-12T10:54:40.943Z,926.36
2018-04-12T10:55:49.020Z,926.37
2018-04-12T10:56:57.140Z,926.43
2018-04-12T10:58:05.200Z,926.41
2018-04-12T10:59:13.236Z,926.44
2018-04-12T11:00:21.284Z,926.47
2018-04-12T11:01:29.498Z,926.53
2018-04-12T11:02:37.460Z,926.48
2018-04-12T11:03:45.502Z,926.46
2018-04-12T11:04:53.730Z,926.42
2018-04-12T11:06:01.623Z,926.42
2018-04-12T11:07:09.775Z,926.46
2018-04-12T11:08:17.796Z,926.45
2018-04-12T11:09:25.887Z,926.49
2018-04-12T11:10:33.941Z,926.45
2018-04-12T11:11:42.048Z,926.41
2018-04-12T11:12:50.078Z,926.42
2018-04-12T11:13:58.143Z,926.40
2018-04-12T11:15:06.205Z,926.42
2018-04-12T11:16:14.278Z,926.35
2018-04-12T11:17:22.464Z,926.43
2018-04-12T11:18:30.442Z,926.44
2018-04-12T11:19:38.490Z,926.41
2018-04-12T11:20:46.703Z,926.51
2018-04-12T11:21:54.633Z,926.55
2018-04-12T11:23:02.703Z,926.43
2018-04-12T11:24:10.774Z,926.43
2018-04-12T11:25:18.842Z,926.40
2018-04-12T11:26:26.910Z,926.41
2018-04-12T11:27:35.025Z,926.31
2018-04-12T11:28:43.194Z,926.42
2018-04-12T11:29:51.089Z,926.43
2018-04-12T11:30:59.176Z,926.51
2018-04-12T11:32:07.297Z,926.48
2018-04-12T11:33:15.315Z,926.53
2018-04-12T11:34:23.396Z,926.52
2018-04-12T11:35:31.437Z,926.55
2018-04-12T11:36:39.639Z,926.51
2018-04-12T11:37:47.651Z,926.54
2018-04-12T11:38:55.663Z,926.51
2018-04-12T11:40:03.730Z,926.48
2018-04-12T11:41:11.802Z,926.50
2018-04-12T11:42:19.878Z,926.51
2018-04-12T11:43:28.067Z,926.53
2018-04-12T11:44:36.004Z,926.54
2018-04-12T11:45:44.083Z,926.54
2018-04-12T11:46:52.160Z,926.50
2018-04-12T11:48:00.225Z,926.52
2018-04-12T11:49:08.348Z,926.53
2018-04-12T11:50:16.368Z,926.57
2018-04-12T11:51:24.445Z,926.52
2018-04-12T11:52:32.560Z,926.52
2018-04-12T11:53:40.597Z,926.47
2018-04-12T11:54:48.705Z,926.46
2018-04-12T11:55:56.742Z,926.42
2018-04-12T11:57:04.790Z,926.41
2018-04-12T11:58:12.850Z,926.35
2018-04-12T11:59:20.921Z,926.42
2018-04-12T12:00:29.054Z,926.41
2018-04-12T12:01:37.138Z,926.44
2018-04-12T12:02:45.145Z,926.45
2018-04-12T12:03:53.214Z,926.44
2018-04-12T12:05:01.311Z,926.53
2018-04-12T12:06:09.351Z,926.53
2018-04-12T12:07:17.475Z,926.51
2018-04-12T12:08:25.493Z,926.54
2018-04-12T12:09:33.576Z,926.56
2018-04-12T12:10:41.649Z,926.59
2018-04-12T12:11:49.702Z,926.61
2018-04-12T12:12:57.755Z,926.61
2018-04-12T12:14:05.840Z,926.61
2018-04-12T12:15:14.019Z,926.71
2018-04-12T12:16:21.999Z,926.66
2018-04-12T12:17:30.047Z,926.65
2018-04-12T12:18:38.128Z,926.56
2018-04-12T12:19:46.205Z,926.48
2018-04-12T12:20:54.317Z,926.53
2018-04-12T12:22:02.443Z,926.59
2018-04-12T12:23:10.392Z,926.65
2018-04-12T12:24:18.486Z,926.59
2018-04-12T12:25:26.549Z,926.65
2018-04-12T12:26:34.639Z,926.59
2018-04-12T12:27:42.688Z,926.56
2018-04-12T12:28:50.819Z,926.58
2018-04-12T12:29:58.821Z,926.55
2018-04-12T12:31:06.952Z,926.48
2018-04-12T12:32:14.984Z,926.62
2018-04-12T12:33:23.050Z,926.58
2018-04-12T12:34:31.102Z,926.55
2018-04-12T12:35:39.173Z,926.55
2018-04-12T12:36:47.293Z,926.62
2018-04-12T12:37:55.365Z,926.57
2018-04-12T12:39:03.397Z,926.54
2018-04-12T12:40:11.444Z,926.51
2018-04-12T12:41:19.575Z,926.43
2018-04-12T12:42:27.620Z,926.35
2018-04-12T12:43:35.691Z,926.40
2018-04-12T12:44:43.759Z,926.37
2018-04-12T12:45:51.820Z,926.29
2018-04-12T12:46:59.931Z,926.32
2018-04-12T12:48:07.952Z,926.40
2018-04-12T12:49:16.028Z,926.41
2018-04-12T12:50:24.103Z,926.45
2018-04-12T12:51:32.235Z,926.44
2018-04-12T12:52:40.332Z,926.44
2018-04-12T12:53:48.333Z,926.50
2018-04-12T12:54:56.403Z,926.49
2018-04-12T12:56:04.512Z,926.43
2018-04-12T12:57:12.594Z,926.50
2018-04-12T12:58:20.601Z,926.52
2018-04-12T12:59:28.685Z,926.60
2018-04-12T13:00:36.755Z,926.57
2018-04-12T13:01:44.939Z,926.50
2018-04-12T13:02:52.901Z,926.49
2018-04-12T13:04:00.947Z,926.50
2018-04-12T13:05:09.049Z,926.48
2018-04-12T13:06:17.110Z,926.43
2018-04-12T13:07:25.303Z,926.40
2018-04-12T13:08:33.257Z,926.43
2018-04-12T13:09:41.301Z,926.40
2018-04-12T13:10:49.402Z,926.40
2018-04-12T13:11:57.473Z,926.38
2018-04-12T13:13:05.525Z,926.42
2018-04-12T13:14:13.608Z,926.43
2018-04-12T13:15:21.676Z,926.38
2018-04-12T13:16:29.762Z,926.36
2018-04-12T13:17:37.888Z,926.41
2018-04-12T13:18:45.921Z,926.39
2018-04-12T13:19:53.989Z,926.41
2018-04-12T13:21:02.049Z,926.40
2018-04-12T13:22:10.148Z,926.34
2018-04-12T13:23:18.235Z,926.34
2018-04-12T13:24:26.273Z,926.35
2018-04-12T13:25:34.310Z,926.30
2018-04-12T13:26:42.415Z,926.32
2018-04-12T13:27:50.522Z,926.34
2018-04-12T13:28:58.556Z,926.36
2018-04-12T13:30:06.621Z,926.38
2018-04-12T13:31:14.680Z,926.38
2018-04-12T13:32:22.770Z,926.35
2018-04-12T13:33:30.814Z,926.43
2018-04-12T13:34:38.900Z,926.42
2018-04-12T13:35:46.971Z,926.41
2018-04-12T13:36:55.053Z,926.36
2018-04-12T13:38:03.166Z,926.33
2018-04-12T13:39:11.255Z,926.31
2018-04-12T13:40:19.266Z,926.27
2018-04-12T13:41:27.330Z,926.28
2018-04-12T13:42:35.405Z,926.21
2018-04-12T13:43:43.609Z,926.20
2018-04-12T13:44:51.515Z,926.20
2018-04-12T13:45:59.618Z,926.23
2018-04-12T13:47:07.695Z,926.26
2018-04-12T13:48:15.803Z,926.32
2018-04-12T13:49:23.815Z,926.26
2018-04-12T13:50:31.899Z,926.19
2018-04-12T13:51:39.969Z,926.20
2018-04-12T13:52:48.039Z,926.22
2018-04-12T13:53:56.174Z,926.18
2018-04-12T13:55:04.281Z,926.18
2018-04-12T13:56:12.255Z,926.18
2018-04-12T13:57:20.326Z,926.10
2018-04-12T13:58:28.517Z,926.16
2018-04-12T13:59:36.479Z,926.21
2018-04-12T14:00:44.590Z,926.13
2018-04-12T14:01:52.631Z,926.06
2018-04-12T14:03:00.693Z,926.08
2018-04-12T14:04:08.815Z,926.07
2018-04-12T14:05:16.839Z,926.05
2018-04-12T14:06:24.902Z,926.03
2018-04-12T14:07:32.978Z,926.08
2018-04-12T14:08:41.024Z,926.02